Terminal Aerodrome Forecast
Issued by NWS

Home | Current Version | Previous Version | Text Only | Print | Product List | Glossary On
Versions: 1 2 3 4 5 6 7 8 9 10 11 12 13 14 15 16 17 18 19 20 21 22 23 24 25 26 27
000
FTUS42 KMFL 200919 AAB
TAFOPF
TAF AMD
KOPF 200919Z 2009/2106 32010KT P6SM BKN035
     FM201400 29006KT P6SM SCT035
     FM201900 05010KT P6SM SCT035
     FM210100 34006KT P6SM FEW035=

USA.gov is the U.S. government's official web portal to all federal, state and local government web resources and services.